Lulu Pass Weather Station

This weather station provides temperature, relative humidity (RH), wind speed, gust or max wind speed, and wind direction at 10014ft near Lulu Pass at the head of Fisher Creek. This data can be used with temperature and precipitation data from the Fisher Creek SNOTEL site.

This weather station was purchased by the Friends of the Avalanche Center.

If the data has not been updated recently you can view it directly on datagarrison.com

Elevation
10014ft
Jump to table bottom
Date Time Temperature
deg F
RH, % Wind Speed Wind Gust Wind Direction
10/06/22 09:00 41.3 64 5 9 N - 340
10/06/22 08:00 40.0 65 7 10 N - 350
10/06/22 07:00 39.9 63 7 10 N - 355
10/06/22 06:00 39.3 63 7 10 N - 357
10/06/22 05:00 39.9 61 5 8 N - 344
10/06/22 04:00 40.0 61 4 6 N - 344
10/06/22 03:00 40.1 59 6 9 N - 347
10/06/22 02:00 40.4 58 8 10 N - 4
10/06/22 01:00 40.8 60 8 11 N - 352
10/06/22 00:00 42.1 59 7 10 N - 355
10/05/22 23:00 42.2 59 5 7 NW - 331
10/05/22 22:00 41.8 57 3 5 N - 338
10/05/22 21:00 43.6 54 3 6 N - 351
10/05/22 20:00 44.0 53 5 7 N - 347
10/05/22 19:00 43.8 51 4 7 NW - 299
10/05/22 18:00 45.3 41 3 10 W - 256
10/05/22 17:00 50.7 35 5 11 SW - 246
10/05/22 16:00 49.4 38 9 16 W - 292
10/05/22 15:00 48.5 48 7 15 W - 281
10/05/22 14:00 47.8 54 6 14 W - 279
10/05/22 13:00 46.5 55 6 12 W - 292
10/05/22 12:00 46.9 57 4 10 SW - 247
10/05/22 11:00 46.8 60 3 8 SW - 247
10/05/22 10:00 42.0 64 5 8 NW - 295
10/05/22 09:00 41.0 66 5 8 NW - 329
10/05/22 08:00 38.0 70 5 6 NW - 327
10/05/22 07:00 36.4 69 3 6 NW - 296
10/05/22 06:00 35.2 68 1 3 E - 79
10/05/22 05:00 37.9 70 5 6 E - 107
10/05/22 04:00 38.4 71 4 6 E - 105
10/05/22 03:00 37.7 73 3 5 E - 91
10/05/22 02:00 37.6 71 3 7 E - 90
10/05/22 01:00 38.1 70 2 4 E - 97
10/05/22 00:00 38.2 68 3 6 NE - 58
10/04/22 23:00 39.5 70 5 8 NE - 27
10/04/22 22:00 39.9 69 4 7 NE - 25
10/04/22 21:00 39.6 70 7 11 N - 17
10/04/22 20:00 39.7 71 7 10 N - 3
10/04/22 19:00 39.9 70 7 10 N - 357
10/04/22 18:00 40.0 67 9 14 NW - 334
10/04/22 17:00 43.7 62 12 18 NW - 317
10/04/22 16:00 44.6 62 10 18 N - 348
10/04/22 15:00 44.1 64 5 10 N - 18
10/04/22 14:00 42.0 67 8 14 N - 343
10/04/22 13:00 42.5 70 7 19 NW - 307
10/04/22 12:00 42.1 73 7 11 NW - 295
10/04/22 11:00 39.6 79 7 10 W - 291
10/04/22 10:00 37.5 84 7 10 NW - 313
10/04/22 09:00 35.7 88 3 9 NW - 302
10/04/22 08:00 33.9 95 9 12 NW - 314